Pagrindinis puslapis
METAR-TAF:

METAR-TAF

Oro uostai :

Aurillac, Prancūzija

platuma: 44-53N, ilguma: 002-25E, Aukštis: 639 m

Dabartinis oras

Ataskaita buvo paskelbta 44 minutes, ne 22:00 UTC
Vėjas 7 kt iš Rytų/Šiaurės Rytų
Temperatūra 3°C
Drėgmė 75%
Slėgis 1016 hPa
Matomumas 10 km arba daugiau

METAR: LFLW 302200Z AUTO 07007KT 9999 ////// 03/M01 Q1016

Laikas: 00:44 (22:44 UTC)


TAF: trūkstamas

Orai ataskaitas ir orų prognozės (METAR, TAF).

turimą stotys yra geltonos ir raudonos taškus žemėlapyje.

Perkelti pele per norėdami pamatyti stoties vardą.

Tada spustelėkite, norėdami matyti oro stebėjimo ir prognozės.

Norėdami pakeisti žemėlapį: spustelėkite ant žalios mygtukų su juodo kryžiaus žemyn,; žalią mygtuką su brūkšneliu, jei norite nutolinti; arba žalių rodyklių gretimoms žemėlapius.


METAR-TAF: